createdAt,value
2023-01-07T00:01:36.143Z,5.39
2023-01-07T00:04:05.423Z,5.40
2023-01-07T00:06:34.615Z,5.27
2023-01-07T00:09:02.876Z,5.00
2023-01-07T00:11:33.035Z,4.87
2023-01-07T00:14:00.605Z,4.94
2023-01-07T00:16:30.134Z,4.93
2023-01-07T00:19:00.286Z,4.86
2023-01-07T00:21:28.302Z,4.97
2023-01-07T00:23:57.853Z,4.97
2023-01-07T00:26:26.474Z,4.93
2023-01-07T00:28:54.269Z,4.91
2023-01-07T00:31:29.776Z,5.04
2023-01-07T00:33:56.585Z,5.38
2023-01-07T00:36:26.354Z,5.56
2023-01-07T00:38:58.508Z,5.46
2023-01-07T00:41:25.558Z,5.43
2023-01-07T00:43:52.195Z,5.91
2023-01-07T00:46:19.608Z,5.97
2023-01-07T00:48:46.469Z,5.74
2023-01-07T00:51:15.094Z,5.25
2023-01-07T00:53:42.423Z,5.53
2023-01-07T00:56:10.715Z,5.31
2023-01-07T00:58:37.837Z,4.87
2023-01-07T01:01:04.638Z,5.16
2023-01-07T01:03:32.760Z,5.24
2023-01-07T01:06:05.146Z,4.99
2023-01-07T01:08:31.871Z,5.34
2023-01-07T01:11:05.985Z,5.11
2023-01-07T01:13:33.142Z,4.77
2023-01-07T01:15:59.786Z,5.07
2023-01-07T01:18:26.689Z,5.41
2023-01-07T01:20:53.360Z,4.41
2023-01-07T01:23:20.045Z,5.06
2023-01-07T01:25:46.626Z,5.11
2023-01-07T01:28:13.210Z,5.09
2023-01-07T01:30:39.841Z,5.15
2023-01-07T01:33:06.461Z,5.29
2023-01-07T01:35:33.072Z,5.14
2023-01-07T01:38:01.294Z,5.02
2023-01-07T01:40:31.072Z,5.00
2023-01-07T01:42:57.641Z,4.82
2023-01-07T01:45:26.019Z,4.91
2023-01-07T01:47:58.474Z,4.92
2023-01-07T01:50:42.743Z,4.91
2023-01-07T01:53:22.244Z,5.21
2023-01-07T01:55:57.045Z,4.93
2023-01-07T01:58:32.621Z,4.81
2023-01-07T02:00:59.370Z,4.88
2023-01-07T02:03:29.785Z,5.01
2023-01-07T02:05:56.472Z,4.99
2023-01-07T02:08:23.227Z,4.97
2023-01-07T02:11:27.526Z,4.64
2023-01-07T02:14:27.625Z,4.75
2023-01-07T02:17:12.829Z,5.17
2023-01-07T02:20:07.136Z,4.90
2023-01-07T02:23:12.844Z,4.89
2023-01-07T02:25:39.379Z,4.77
2023-01-07T02:28:27.528Z,5.02
2023-01-07T02:31:09.189Z,4.71
2023-01-07T02:34:03.748Z,5.04
2023-01-07T02:36:50.687Z,4.52
2023-01-07T02:39:35.092Z,4.62
2023-01-07T02:42:37.865Z,3.98
2023-01-07T02:45:29.894Z,4.50
2023-01-07T02:48:07.447Z,4.41
2023-01-07T02:50:34.227Z,4.29
2023-01-07T02:53:01.077Z,4.32
2023-01-07T02:56:08.474Z,4.46
2023-01-07T02:59:16.474Z,3.93
2023-01-07T03:01:49.061Z,3.95
2023-01-07T03:04:48.542Z,3.38
2023-01-07T03:07:24.595Z,3.14
2023-01-07T03:10:03.335Z,3.35
2023-01-07T03:12:42.088Z,3.50
2023-01-07T03:15:20.435Z,3.64
2023-01-07T03:18:17.633Z,3.77
2023-01-07T03:20:48.003Z,3.97
2023-01-07T03:23:20.581Z,3.69
2023-01-07T03:25:51.953Z,3.49
2023-01-07T03:28:24.133Z,3.41
2023-01-07T03:30:54.692Z,3.04
2023-01-07T03:33:35.115Z,3.26
2023-01-07T03:36:05.725Z,3.52
2023-01-07T03:38:34.268Z,3.58
2023-01-07T03:41:00.924Z,3.76
2023-01-07T03:43:27.559Z,3.59
2023-01-07T03:45:56.232Z,3.74
2023-01-07T03:48:22.942Z,3.27
2023-01-07T03:50:49.587Z,3.01
2023-01-07T03:53:16.223Z,2.99
2023-01-07T03:55:42.819Z,2.94
2023-01-07T03:58:09.407Z,2.97
2023-01-07T04:00:36.055Z,3.15
2023-01-07T04:03:02.739Z,3.03
2023-01-07T04:05:29.347Z,2.87
2023-01-07T04:07:55.952Z,3.00
2023-01-07T04:10:22.561Z,2.70
2023-01-07T04:12:49.165Z,2.72
2023-01-07T04:15:15.864Z,2.68
2023-01-07T04:17:42.597Z,2.83
2023-01-07T04:20:09.838Z,2.72
2023-01-07T04:22:36.421Z,2.68
2023-01-07T04:25:03.195Z,2.70
2023-01-07T04:27:29.848Z,2.80
2023-01-07T04:29:56.454Z,2.98
2023-01-07T04:32:23.038Z,3.08
2023-01-07T04:34:49.668Z,3.18
2023-01-07T04:37:16.355Z,3.15
2023-01-07T04:39:43.000Z,3.10
2023-01-07T04:42:09.641Z,3.14
2023-01-07T04:44:36.251Z,3.15
2023-01-07T04:47:05.810Z,3.01
2023-01-07T04:49:32.422Z,2.96
2023-01-07T04:51:59.042Z,2.96
2023-01-07T04:54:25.693Z,3.02
2023-01-07T04:56:52.285Z,3.33
2023-01-07T04:59:18.883Z,3.07
2023-01-07T05:01:45.639Z,2.86
2023-01-07T05:04:12.401Z,2.48
2023-01-07T05:06:39.124Z,2.01
2023-01-07T05:09:05.703Z,2.04
2023-01-07T05:11:32.399Z,2.41
2023-01-07T05:14:01.814Z,2.61
2023-01-07T05:16:28.516Z,2.79
2023-01-07T05:18:55.365Z,2.88
2023-01-07T05:21:22.060Z,3.02
2023-01-07T05:23:48.668Z,2.77
2023-01-07T05:26:15.242Z,2.30
2023-01-07T05:28:41.883Z,2.43
2023-01-07T05:31:08.524Z,2.43
2023-01-07T05:33:35.200Z,2.36
2023-01-07T05:36:01.807Z,2.38
2023-01-07T05:38:28.504Z,2.70
2023-01-07T05:40:55.093Z,2.43
2023-01-07T05:43:21.735Z,2.49
2023-01-07T05:45:48.394Z,2.32
2023-01-07T05:48:15.567Z,2.35
2023-01-07T05:50:42.478Z,2.54
2023-01-07T05:53:09.075Z,2.61
2023-01-07T05:55:37.784Z,2.63
2023-01-07T05:58:05.344Z,2.73
2023-01-07T06:00:32.100Z,2.67
2023-01-07T06:02:58.896Z,2.47
2023-01-07T06:05:26.130Z,2.39
2023-01-07T06:07:52.776Z,2.29
2023-01-07T06:10:19.495Z,2.26
2023-01-07T06:12:46.147Z,1.97
2023-01-07T06:15:12.806Z,2.03
2023-01-07T06:17:39.456Z,2.19
2023-01-07T06:20:06.644Z,1.92
2023-01-07T06:22:33.251Z,1.91
2023-01-07T06:24:59.846Z,1.98
2023-01-07T06:27:26.539Z,1.96
2023-01-07T06:29:53.123Z,1.86
2023-01-07T06:32:19.732Z,1.82
2023-01-07T06:34:46.401Z,1.76
2023-01-07T06:37:13.012Z,1.70
2023-01-07T06:39:39.593Z,1.75
2023-01-07T06:42:06.403Z,1.81
2023-01-07T06:44:33.045Z,1.92
2023-01-07T06:46:59.757Z,2.05
2023-01-07T06:49:26.426Z,2.10
2023-01-07T06:51:53.020Z,1.98
2023-01-07T06:54:19.681Z,1.75
2023-01-07T06:56:46.337Z,1.84
2023-01-07T06:59:12.981Z,2.05
2023-01-07T07:01:39.663Z,2.15
2023-01-07T07:04:06.293Z,2.18
2023-01-07T07:06:33.018Z,2.44
2023-01-07T07:08:59.607Z,2.18
2023-01-07T07:11:26.239Z,2.02
2023-01-07T07:13:52.908Z,2.09
2023-01-07T07:16:19.732Z,2.02
2023-01-07T07:18:46.373Z,2.05
2023-01-07T07:21:12.964Z,2.08
2023-01-07T07:23:39.549Z,1.98
2023-01-07T07:26:06.181Z,2.12
2023-01-07T07:28:32.753Z,1.89
2023-01-07T07:30:59.423Z,1.98
2023-01-07T07:33:26.051Z,2.17
2023-01-07T07:35:52.988Z,2.21
2023-01-07T07:38:19.953Z,1.99
2023-01-07T07:40:46.980Z,1.79
2023-01-07T07:43:15.021Z,1.84
2023-01-07T07:45:41.694Z,2.01
2023-01-07T07:48:09.283Z,2.13
2023-01-07T07:50:36.366Z,2.72
2023-01-07T07:53:03.484Z,2.40
2023-01-07T07:55:30.229Z,2.81
2023-01-07T07:57:57.592Z,2.70
2023-01-07T08:00:24.563Z,2.68
2023-01-07T08:02:51.168Z,2.51
2023-01-07T08:05:18.072Z,2.33
2023-01-07T08:07:44.653Z,2.71
2023-01-07T08:10:11.324Z,2.63
2023-01-07T08:12:39.100Z,2.85
2023-01-07T08:15:12.967Z,3.03
2023-01-07T08:17:39.616Z,2.60
2023-01-07T08:20:07.509Z,2.52
2023-01-07T08:22:34.843Z,2.40
2023-01-07T08:25:01.763Z,2.44
2023-01-07T08:27:28.618Z,2.47
2023-01-07T08:29:55.879Z,2.46
2023-01-07T08:32:23.074Z,2.54
2023-01-07T08:34:49.871Z,2.76
2023-01-07T08:37:16.958Z,2.72
2023-01-07T08:39:43.546Z,2.82
2023-01-07T08:42:10.251Z,3.84
2023-01-07T08:44:36.846Z,3.40
2023-01-07T08:47:03.674Z,3.35
2023-01-07T08:49:30.295Z,3.20
2023-01-07T08:51:56.925Z,3.24
2023-01-07T08:54:23.514Z,3.44
2023-01-07T08:56:50.251Z,4.25
2023-01-07T08:59:16.859Z,3.61
2023-01-07T09:01:43.633Z,4.11
2023-01-07T09:04:10.327Z,4.83
2023-01-07T09:06:36.909Z,4.67
2023-01-07T09:09:03.588Z,5.00
2023-01-07T09:11:30.217Z,4.80
2023-01-07T09:13:56.811Z,5.05
2023-01-07T09:16:23.609Z,5.48
2023-01-07T09:18:50.427Z,5.50
2023-01-07T09:21:17.048Z,5.43
2023-01-07T09:23:43.630Z,5.70
2023-01-07T09:26:10.251Z,6.16
2023-01-07T09:28:36.845Z,6.28
2023-01-07T09:31:03.446Z,6.26
2023-01-07T09:33:30.163Z,6.08
2023-01-07T09:35:56.806Z,6.22
2023-01-07T09:38:23.462Z,6.30
2023-01-07T09:40:50.252Z,6.91
2023-01-07T09:43:21.733Z,6.87
2023-01-07T09:45:53.087Z,6.98
2023-01-07T09:48:21.192Z,6.87
2023-01-07T09:51:02.844Z,6.80
2023-01-07T09:53:54.462Z,6.99
2023-01-07T09:56:25.744Z,7.10
2023-01-07T09:58:54.136Z,7.28
2023-01-07T10:01:27.601Z,7.67
2023-01-07T10:04:22.625Z,7.59
2023-01-07T10:07:01.308Z,7.73
2023-01-07T10:09:47.485Z,7.58
2023-01-07T10:12:42.606Z,7.59
2023-01-07T10:15:22.702Z,7.71
2023-01-07T10:18:09.704Z,7.52
2023-01-07T10:21:03.472Z,7.66
2023-01-07T10:23:37.239Z,7.65
2023-01-07T10:26:04.037Z,7.96
2023-01-07T10:28:39.913Z,8.36
2023-01-07T10:31:16.706Z,8.15
2023-01-07T10:33:47.384Z,7.95
2023-01-07T10:36:22.936Z,8.18
2023-01-07T10:39:03.081Z,8.51
2023-01-07T10:42:16.915Z,8.59
2023-01-07T10:45:01.497Z,9.09
2023-01-07T10:47:53.024Z,9.56
2023-01-07T10:50:38.413Z,9.38
2023-01-07T10:53:29.766Z,9.77
2023-01-07T10:56:20.402Z,9.58
2023-01-07T10:58:49.923Z,9.46
2023-01-07T11:01:29.161Z,9.38
2023-01-07T11:03:58.150Z,9.59
2023-01-07T11:06:39.978Z,9.59
2023-01-07T11:09:12.472Z,9.84
2023-01-07T11:11:41.032Z,9.63
2023-01-07T11:14:15.310Z,9.35
2023-01-07T11:16:49.893Z,9.50
2023-01-07T11:19:18.603Z,9.51
2023-01-07T11:21:47.478Z,9.45
2023-01-07T11:24:32.825Z,9.60
2023-01-07T11:27:04.562Z,9.62
2023-01-07T11:29:37.155Z,10.05
2023-01-07T11:32:04.447Z,10.38
2023-01-07T11:34:52.015Z,10.03
2023-01-07T11:37:43.149Z,10.43
2023-01-07T11:40:10.059Z,10.85
2023-01-07T11:42:48.099Z,10.95
2023-01-07T11:45:18.904Z,10.50
2023-01-07T11:48:01.800Z,10.77
2023-01-07T11:50:59.487Z,11.16
2023-01-07T11:53:45.115Z,11.10
2023-01-07T11:56:14.566Z,11.29
2023-01-07T11:58:44.590Z,11.30
2023-01-07T12:01:14.236Z,11.42
2023-01-07T12:03:53.253Z,11.31
2023-01-07T12:06:33.365Z,11.34
2023-01-07T12:09:23.892Z,11.28
2023-01-07T12:11:53.091Z,11.67
2023-01-07T12:14:25.883Z,11.66
2023-01-07T12:16:54.368Z,11.83
2023-01-07T12:19:52.981Z,11.65
2023-01-07T12:22:34.629Z,11.52
2023-01-07T12:25:13.183Z,11.46
2023-01-07T12:27:51.645Z,11.84
2023-01-07T12:30:44.139Z,11.69
2023-01-07T12:33:20.115Z,11.86
2023-01-07T12:35:46.896Z,11.96
2023-01-07T12:38:16.468Z,12.20
2023-01-07T12:40:53.967Z,12.04
2023-01-07T12:43:32.001Z,12.25
2023-01-07T12:46:07.772Z,12.17
2023-01-07T12:49:05.128Z,11.92
2023-01-07T12:52:03.808Z,12.01
2023-01-07T12:54:45.391Z,11.95
2023-01-07T12:57:23.822Z,12.22
2023-01-07T13:00:09.708Z,11.98
2023-01-07T13:02:37.645Z,11.83
2023-01-07T13:05:12.309Z,11.85
2023-01-07T13:07:59.307Z,12.04
2023-01-07T13:10:36.117Z,11.89
2023-01-07T13:13:15.728Z,12.08
2023-01-07T13:15:42.462Z,12.27
2023-01-07T13:18:12.123Z,11.92
2023-01-07T13:21:03.111Z,12.07
2023-01-07T13:24:09.302Z,12.13
2023-01-07T13:27:00.106Z,11.98
2023-01-07T13:29:51.777Z,11.80
2023-01-07T13:32:45.822Z,11.68
2023-01-07T13:35:27.204Z,11.69
2023-01-07T13:38:09.465Z,11.64
2023-01-07T13:41:10.811Z,11.48
2023-01-07T13:44:08.193Z,11.40
2023-01-07T13:46:39.101Z,11.20
2023-01-07T13:49:06.534Z,11.22
2023-01-07T13:51:36.661Z,11.38
2023-01-07T13:54:03.449Z,11.28
2023-01-07T13:56:38.409Z,10.69
2023-01-07T13:59:28.352Z,10.59
2023-01-07T14:02:17.272Z,10.54
2023-01-07T14:05:03.699Z,10.66
2023-01-07T14:07:31.485Z,10.47
2023-01-07T14:09:58.433Z,10.66
2023-01-07T14:12:52.184Z,10.64
2023-01-07T14:15:50.045Z,10.31
2023-01-07T14:18:42.926Z,10.28
2023-01-07T14:21:45.760Z,9.97
2023-01-07T14:24:27.510Z,9.81
2023-01-07T14:27:11.994Z,9.62
2023-01-07T14:29:47.958Z,9.61
2023-01-07T14:32:31.326Z,9.43
2023-01-07T14:35:06.956Z,9.30
2023-01-07T14:37:36.847Z,9.20
2023-01-07T14:40:27.990Z,9.67
2023-01-07T14:42:56.444Z,9.56
2023-01-07T14:45:41.410Z,9.27
2023-01-07T14:48:08.038Z,9.02
2023-01-07T14:50:46.360Z,9.05
2023-01-07T14:53:15.955Z,8.76
2023-01-07T14:55:51.160Z,8.53
2023-01-07T14:58:32.464Z,8.68
2023-01-07T15:01:10.616Z,8.41
2023-01-07T15:03:52.483Z,8.49
2023-01-07T15:06:26.744Z,8.47
2023-01-07T15:09:05.210Z,8.43
2023-01-07T15:11:33.851Z,8.18
2023-01-07T15:14:06.891Z,8.12
2023-01-07T15:16:35.807Z,8.00
2023-01-07T15:19:02.728Z,7.91
2023-01-07T15:21:29.272Z,7.93
2023-01-07T15:24:22.679Z,7.65
2023-01-07T15:27:18.279Z,7.57
2023-01-07T15:29:53.700Z,7.79
2023-01-07T15:32:41.873Z,7.53
2023-01-07T15:35:16.527Z,7.58
2023-01-07T15:37:51.010Z,7.28
2023-01-07T15:40:21.534Z,7.52
2023-01-07T15:42:51.349Z,7.32
2023-01-07T15:45:24.032Z,7.48
2023-01-07T15:47:51.397Z,7.48
2023-01-07T15:50:34.665Z,7.37
2023-01-07T15:53:15.635Z,6.81
2023-01-07T15:55:51.092Z,6.82
2023-01-07T15:58:40.583Z,7.03
2023-01-07T16:01:17.904Z,6.87
2023-01-07T16:03:44.686Z,7.11
2023-01-07T16:06:37.522Z,6.84
2023-01-07T16:09:18.670Z,6.47
2023-01-07T16:11:45.541Z,6.25
2023-01-07T16:14:21.408Z,5.88
2023-01-07T16:16:48.946Z,5.88
2023-01-07T16:19:18.731Z,5.92
2023-01-07T16:21:52.561Z,5.88
2023-01-07T16:24:19.216Z,5.89
2023-01-07T16:26:45.767Z,5.56
2023-01-07T16:29:26.943Z,5.56
2023-01-07T16:31:54.932Z,5.57
2023-01-07T16:34:24.666Z,5.44
2023-01-07T16:36:59.511Z,5.10
2023-01-07T16:39:34.090Z,5.27
2023-01-07T16:42:01.830Z,5.40
2023-01-07T16:44:43.389Z,5.21
2023-01-07T16:47:28.058Z,4.97
2023-01-07T16:49:57.188Z,5.34
2023-01-07T16:52:32.225Z,5.48
2023-01-07T16:54:59.650Z,5.57
2023-01-07T16:57:37.908Z,5.89
2023-01-07T17:00:05.411Z,5.68
2023-01-07T17:02:44.494Z,5.70
2023-01-07T17:05:20.837Z,5.60
2023-01-07T17:07:51.350Z,5.60
2023-01-07T17:10:22.217Z,5.62
2023-01-07T17:13:04.127Z,5.66
2023-01-07T17:15:33.606Z,5.29
2023-01-07T17:18:12.499Z,5.53
2023-01-07T17:20:42.795Z,5.46
2023-01-07T17:23:24.610Z,5.69
2023-01-07T17:26:11.986Z,5.55
2023-01-07T17:29:09.938Z,5.62
2023-01-07T17:31:39.425Z,5.88
2023-01-07T17:34:10.245Z,5.58
2023-01-07T17:36:36.927Z,5.45
2023-01-07T17:39:03.876Z,5.62
2023-01-07T17:41:33.914Z,5.16
2023-01-07T17:44:01.390Z,5.41
2023-01-07T17:46:31.027Z,5.50
2023-01-07T17:48:58.494Z,5.85
2023-01-07T17:51:27.124Z,5.83
2023-01-07T17:53:56.639Z,6.02
2023-01-07T17:56:23.397Z,5.96
2023-01-07T17:58:50.255Z,5.73
2023-01-07T18:01:20.492Z,5.91
2023-01-07T18:03:47.166Z,5.94
2023-01-07T18:06:17.281Z,5.72
2023-01-07T18:08:45.730Z,5.78
2023-01-07T18:11:15.256Z,5.56
2023-01-07T18:13:42.005Z,5.69
2023-01-07T18:16:12.663Z,5.62
2023-01-07T18:18:39.351Z,5.25
2023-01-07T18:21:06.146Z,5.60
2023-01-07T18:23:32.828Z,5.81
2023-01-07T18:25:59.439Z,5.75
2023-01-07T18:28:26.034Z,5.68
2023-01-07T18:30:52.657Z,5.73
2023-01-07T18:33:19.279Z,5.74
2023-01-07T18:35:48.125Z,6.05
2023-01-07T18:38:16.109Z,6.20
2023-01-07T18:40:43.364Z,5.99
2023-01-07T18:43:18.363Z,5.92
2023-01-07T18:45:46.278Z,5.99
2023-01-07T18:48:15.701Z,5.64
2023-01-07T18:50:46.288Z,5.71
2023-01-07T18:53:13.152Z,5.98
2023-01-07T18:55:41.406Z,6.04
2023-01-07T18:58:08.879Z,6.01
2023-01-07T19:00:35.593Z,5.82
2023-01-07T19:03:02.259Z,5.66
2023-01-07T19:05:29.556Z,5.61
2023-01-07T19:07:56.986Z,5.34
2023-01-07T19:10:25.263Z,5.56
2023-01-07T19:12:51.952Z,5.76
2023-01-07T19:15:19.057Z,5.67
2023-01-07T19:17:45.641Z,5.99
2023-01-07T19:20:12.860Z,5.71
2023-01-07T19:22:39.438Z,5.83
2023-01-07T19:25:06.497Z,6.00
2023-01-07T19:27:33.105Z,5.99
2023-01-07T19:29:59.687Z,5.90
2023-01-07T19:32:26.405Z,5.90
2023-01-07T19:34:53.020Z,6.08
2023-01-07T19:37:19.602Z,6.18
2023-01-07T19:39:46.311Z,5.94
2023-01-07T19:42:12.907Z,5.51
2023-01-07T19:44:39.605Z,5.87
2023-01-07T19:47:06.244Z,5.58
2023-01-07T19:49:32.896Z,5.69
2023-01-07T19:51:59.529Z,6.01
2023-01-07T19:54:26.141Z,6.00
2023-01-07T19:56:53.731Z,5.89
2023-01-07T19:59:20.338Z,6.02
2023-01-07T20:01:48.166Z,5.98
2023-01-07T20:04:14.946Z,6.02
2023-01-07T20:06:43.183Z,5.90
2023-01-07T20:09:09.780Z,5.78
2023-01-07T20:11:40.134Z,6.01
2023-01-07T20:14:07.219Z,6.27
2023-01-07T20:16:33.967Z,5.94
2023-01-07T20:19:00.593Z,6.08
2023-01-07T20:21:27.445Z,5.92
2023-01-07T20:23:55.062Z,5.98
2023-01-07T20:26:26.124Z,6.03
2023-01-07T20:28:53.505Z,5.95
2023-01-07T20:31:22.084Z,6.12
2023-01-07T20:33:48.987Z,6.41
2023-01-07T20:36:18.893Z,6.49
2023-01-07T20:38:46.843Z,6.23
2023-01-07T20:41:15.992Z,5.95
2023-01-07T20:43:42.709Z,5.98
2023-01-07T20:46:10.568Z,5.92
2023-01-07T20:48:37.324Z,6.01
2023-01-07T20:51:08.055Z,6.11
2023-01-07T20:53:36.210Z,6.19
2023-01-07T20:56:04.698Z,6.13
2023-01-07T20:58:33.290Z,6.36
2023-01-07T21:01:07.686Z,6.57
2023-01-07T21:03:35.704Z,6.41
2023-01-07T21:06:02.440Z,6.28
2023-01-07T21:08:29.077Z,6.30
2023-01-07T21:10:55.660Z,6.20
2023-01-07T21:13:23.102Z,6.19
2023-01-07T21:15:50.933Z,6.34
2023-01-07T21:18:18.111Z,6.32
2023-01-07T21:20:47.571Z,6.28
2023-01-07T21:23:14.170Z,5.84
2023-01-07T21:25:40.762Z,5.74
2023-01-07T21:28:07.362Z,6.04
2023-01-07T21:30:35.298Z,5.98
2023-01-07T21:33:02.064Z,6.22
2023-01-07T21:35:28.676Z,6.32
2023-01-07T21:37:55.870Z,5.73
2023-01-07T21:40:22.984Z,6.11
2023-01-07T21:42:49.818Z,6.06
2023-01-07T21:45:16.623Z,6.34
2023-01-07T21:47:43.248Z,6.31
2023-01-07T21:50:10.406Z,6.33
2023-01-07T21:52:37.383Z,5.85
2023-01-07T21:55:04.217Z,5.61
2023-01-07T21:57:30.847Z,6.14
2023-01-07T21:59:57.453Z,5.99
2023-01-07T22:02:24.045Z,5.98
2023-01-07T22:04:50.744Z,6.18
2023-01-07T22:07:18.688Z,6.10
2023-01-07T22:09:46.049Z,5.94
2023-01-07T22:12:14.416Z,5.71
2023-01-07T22:14:41.502Z,5.81
2023-01-07T22:17:09.259Z,5.72
2023-01-07T22:19:35.905Z,5.69
2023-01-07T22:22:03.195Z,6.19
2023-01-07T22:24:29.870Z,5.82
2023-01-07T22:26:56.460Z,6.07
2023-01-07T22:29:23.058Z,6.24
2023-01-07T22:31:50.551Z,6.37
2023-01-07T22:34:17.265Z,6.33
2023-01-07T22:36:45.449Z,6.24
2023-01-07T22:39:19.611Z,5.87
2023-01-07T22:41:47.336Z,6.30
2023-01-07T22:44:19.688Z,5.91
2023-01-07T22:46:49.102Z,5.98
2023-01-07T22:49:16.999Z,5.94
2023-01-07T22:51:47.272Z,6.02
2023-01-07T22:54:15.224Z,5.98
2023-01-07T22:56:42.448Z,5.98
2023-01-07T22:59:09.736Z,5.80
2023-01-07T23:01:36.472Z,5.67
2023-01-07T23:04:03.510Z,5.82
2023-01-07T23:06:30.205Z,5.65
2023-01-07T23:08:57.712Z,5.59
2023-01-07T23:11:24.292Z,5.44
2023-01-07T23:13:50.893Z,5.60
2023-01-07T23:16:17.551Z,5.77
2023-01-07T23:18:44.314Z,6.12
2023-01-07T23:21:10.921Z,6.26
2023-01-07T23:23:37.547Z,5.86
2023-01-07T23:26:04.205Z,5.64
2023-01-07T23:28:30.800Z,5.79
2023-01-07T23:31:00.967Z,5.84
2023-01-07T23:33:27.547Z,5.43
2023-01-07T23:36:04.290Z,5.82
2023-01-07T23:38:31.137Z,6.12
2023-01-07T23:41:06.381Z,6.35
2023-01-07T23:43:33.910Z,6.21
2023-01-07T23:46:03.229Z,5.83
2023-01-07T23:48:32.059Z,5.82
2023-01-07T23:51:07.797Z,5.87
2023-01-07T23:53:34.750Z,5.84
2023-01-07T23:56:02.236Z,6.06
2023-01-07T23:58:29.851Z,5.93
